createdAt,value
2019-01-22T00:04:50.565Z,11.20
2019-01-22T00:09:54.701Z,13.57
2019-01-22T00:14:59.356Z,13.53
2019-01-22T00:20:20.370Z,10.37
2019-01-22T00:25:25.057Z,11.80
2019-01-22T00:30:30.809Z,9.10
2019-01-22T00:35:33.884Z,10.43
2019-01-22T00:40:38.477Z,10.90
2019-01-22T00:45:43.141Z,12.43
2019-01-22T00:50:51.320Z,11.73
2019-01-22T00:55:54.707Z,10.37
2019-01-22T01:00:57.587Z,10.53
2019-01-22T01:06:04.405Z,12.43
2019-01-22T01:11:08.604Z,11.13
2019-01-22T01:16:16.123Z,10.13
2019-01-22T01:21:23.276Z,11.20
2019-01-22T01:26:27.972Z,11.40
2019-01-22T01:31:32.460Z,12.00
2019-01-22T01:36:53.407Z,10.17
2019-01-22T01:42:14.792Z,10.07
2019-01-22T01:47:18.096Z,9.93
2019-01-22T01:52:30.650Z,11.47
2019-01-22T01:57:35.825Z,10.20
2019-01-22T02:02:41.942Z,12.67
2019-01-22T02:07:45.294Z,12.37
2019-01-22T02:13:01.355Z,12.37
2019-01-22T02:18:28.111Z,11.53
2019-01-22T02:24:12.078Z,12.80
2019-01-22T02:29:21.871Z,13.13
2019-01-22T02:35:12.115Z,15.20
2019-01-22T02:40:40.776Z,15.07
2019-01-22T02:46:17.662Z,16.30
2019-01-22T02:51:57.209Z,15.80
2019-01-22T02:58:18.402Z,15.40
2019-01-22T03:03:57.152Z,15.10
2019-01-22T03:09:33.537Z,14.23
2019-01-22T03:15:02.271Z,14.47
2019-01-22T03:20:17.713Z,13.73
2019-01-22T03:26:03.191Z,13.07
2019-01-22T03:31:48.873Z,13.83
2019-01-22T03:37:49.603Z,12.87
2019-01-22T03:43:43.991Z,12.67
2019-01-22T03:49:29.559Z,14.40
2019-01-22T03:55:06.042Z,16.07
2019-01-22T04:00:22.423Z,13.30
2019-01-22T04:05:25.718Z,14.47
2019-01-22T04:11:02.404Z,16.53
2019-01-22T04:16:06.016Z,14.63
2019-01-22T04:21:13.163Z,15.83
2019-01-22T04:27:01.305Z,14.77
2019-01-22T04:32:10.680Z,14.70
2019-01-22T04:37:36.908Z,17.00
2019-01-22T04:43:17.342Z,15.63
2019-01-22T04:49:08.058Z,13.97
2019-01-22T04:54:51.660Z,14.17
2019-01-22T05:00:49.383Z,15.40
2019-01-22T05:06:31.281Z,14.67
2019-01-22T05:12:38.475Z,15.13
2019-01-22T05:18:14.599Z,16.23
2019-01-22T05:23:47.797Z,17.47
2019-01-22T05:29:16.105Z,16.60
2019-01-22T06:18:40.662Z,19.03
2019-01-22T07:32:13.360Z,17.63
2019-01-22T07:38:06.256Z,17.67
2019-01-22T15:14:37.387Z,25.20
2019-01-22T15:19:42.359Z,26.10
2019-01-22T15:25:09.548Z,25.90
2019-01-22T15:30:22.635Z,26.97
2019-01-22T15:35:45.060Z,24.17
2019-01-22T15:40:48.822Z,24.43
2019-01-22T15:46:10.074Z,31.73
2019-01-22T15:51:15.059Z,28.77
2019-01-22T15:56:37.118Z,29.33
2019-01-22T16:01:41.795Z,26.63
2019-01-22T16:07:02.840Z,25.17
2019-01-22T16:12:06.601Z,28.10
2019-01-22T16:17:27.674Z,26.70
2019-01-22T16:22:30.435Z,27.30
2019-01-22T16:27:53.660Z,27.70
2019-01-22T16:33:14.614Z,27.43
2019-01-22T16:38:35.746Z,24.17
2019-01-22T16:43:56.840Z,25.13
2019-01-22T16:49:20.343Z,26.53
2019-01-22T16:54:41.095Z,25.60
2019-01-22T16:59:46.357Z,27.83
2019-01-22T17:05:08.636Z,25.97
2019-01-22T17:10:16.454Z,27.43
2019-01-22T17:15:19.659Z,27.30
2019-01-22T17:20:29.242Z,26.90
2019-01-22T17:25:36.574Z,29.73
2019-01-22T17:30:42.655Z,27.80
2019-01-22T17:35:57.042Z,29.50
2019-01-22T17:41:09.917Z,27.77
2019-01-22T17:46:13.491Z,25.50
2019-01-22T17:51:22.723Z,25.57
2019-01-22T17:56:31.057Z,27.60
2019-01-22T18:01:36.741Z,28.23
2019-01-22T18:06:43.324Z,25.07
2019-01-22T18:12:04.517Z,28.00
2019-01-22T18:17:26.491Z,27.37
2019-01-22T18:22:29.604Z,27.63
2019-01-22T18:27:33.630Z,29.83
2019-01-22T18:32:46.307Z,30.73
2019-01-22T18:37:49.153Z,30.17
2019-01-22T18:42:52.171Z,29.67
2019-01-22T18:47:58.069Z,26.80
2019-01-22T18:53:08.390Z,29.80
2019-01-22T18:58:37.507Z,27.80
2019-01-22T19:03:49.070Z,28.23
2019-01-22T19:09:11.677Z,27.50
2019-01-22T19:14:32.696Z,30.93
2019-01-22T19:19:53.892Z,28.40
2019-01-22T19:24:56.730Z,28.47
2019-01-22T19:29:59.930Z,23.97
2019-01-22T19:35:21.264Z,25.93
2019-01-22T19:40:33.822Z,24.17
2019-01-22T19:45:37.236Z,26.90
2019-01-22T19:50:49.210Z,29.37
2019-01-22T19:56:13.897Z,31.23
2019-01-22T20:01:18.270Z,27.83
2019-01-22T20:06:39.191Z,25.37
2019-01-22T20:11:52.119Z,26.67
2019-01-22T20:16:54.944Z,28.83
2019-01-22T20:22:16.480Z,25.73
2019-01-22T20:27:30.079Z,26.50
2019-01-22T20:32:36.505Z,26.77
2019-01-22T20:37:58.403Z,22.87
2019-01-22T20:43:20.127Z,22.70
2019-01-22T20:48:22.899Z,25.87
2019-01-22T20:53:25.682Z,27.00
2019-01-22T20:58:28.545Z,25.17
2019-01-22T21:03:34.304Z,22.77
2019-01-22T21:08:37.768Z,25.67
2019-01-22T21:13:40.671Z,22.93
2019-01-22T21:18:44.423Z,24.73
2019-01-22T21:24:05.630Z,25.07
2019-01-22T21:29:09.684Z,23.70
2019-01-22T21:34:16.243Z,24.87
2019-01-22T21:39:20.780Z,22.00
2019-01-22T21:44:34.779Z,21.30
2019-01-22T21:49:40.930Z,21.73
2019-01-22T21:54:44.419Z,22.67
2019-01-22T21:59:49.908Z,21.87
2019-01-22T22:05:11.155Z,23.00
2019-01-22T22:10:18.415Z,23.03
2019-01-22T22:15:23.048Z,21.63
2019-01-22T22:20:31.263Z,21.23
2019-01-22T22:25:38.410Z,23.43
2019-01-22T22:30:42.499Z,23.10
2019-01-22T22:36:03.551Z,25.17
2019-01-22T22:41:15.394Z,23.90
2019-01-22T22:46:18.596Z,25.90
2019-01-22T22:51:24.751Z,24.13
2019-01-22T22:56:27.739Z,25.03
2019-01-22T23:01:36.992Z,24.00
2019-01-22T23:06:41.397Z,23.50
2019-01-22T23:11:44.233Z,20.70
2019-01-22T23:16:48.163Z,19.77
2019-01-22T23:21:50.947Z,19.47
2019-01-22T23:27:11.621Z,18.43
2019-01-22T23:32:16.162Z,20.60
2019-01-22T23:37:21.302Z,20.70
2019-01-22T23:42:24.433Z,19.77
2019-01-22T23:47:28.183Z,19.43
2019-01-22T23:52:31.095Z,20.90
2019-01-22T23:57:41.067Z,22.27
